createdAt,value
2023-02-01T00:02:00.975Z,22.20
2023-02-01T00:04:41.612Z,16.70
2023-02-01T00:07:14.343Z,23.30
2023-02-01T00:09:41.500Z,20.10
2023-02-01T00:12:08.139Z,20.30
2023-02-01T00:14:38.798Z,18.30
2023-02-01T00:17:06.996Z,21.10
2023-02-01T00:19:34.806Z,17.70
2023-02-01T00:22:01.348Z,18.40
2023-02-01T00:24:28.956Z,24.00
2023-02-01T00:26:56.160Z,18.10
2023-02-01T00:29:24.308Z,21.90
2023-02-01T00:31:51.997Z,21.30
2023-02-01T00:34:22.920Z,18.10
2023-02-01T00:36:50.741Z,22.60
2023-02-01T00:39:17.547Z,23.90
2023-02-01T00:41:45.090Z,22.20
2023-02-01T00:44:11.671Z,19.80
2023-02-01T00:46:38.594Z,24.00
2023-02-01T00:49:07.635Z,21.70
2023-02-01T00:51:34.775Z,18.70
2023-02-01T00:54:01.418Z,25.00
2023-02-01T00:56:27.946Z,23.00
2023-02-01T00:58:54.914Z,22.10
2023-02-01T01:01:23.387Z,26.40
2023-02-01T01:03:52.278Z,22.50
2023-02-01T01:06:23.870Z,20.50
2023-02-01T01:08:54.770Z,20.90
2023-02-01T01:11:26.614Z,15.90
2023-02-01T01:13:56.061Z,19.00
2023-02-01T01:16:23.686Z,22.00
2023-02-01T01:18:50.405Z,19.30
2023-02-01T01:21:17.031Z,28.50
2023-02-01T01:23:44.425Z,21.30
2023-02-01T01:26:22.853Z,25.30
2023-02-01T01:28:49.846Z,19.10
2023-02-01T01:31:17.319Z,22.70
2023-02-01T01:33:48.371Z,19.60
2023-02-01T01:36:14.920Z,21.60
2023-02-01T01:38:41.785Z,23.50
2023-02-01T01:41:11.848Z,26.60
2023-02-01T01:43:50.732Z,21.90
2023-02-01T01:46:23.836Z,25.10
2023-02-01T01:48:54.454Z,27.20
2023-02-01T01:51:21.702Z,23.40
2023-02-01T01:53:53.974Z,21.70
2023-02-01T01:56:22.001Z,26.60
2023-02-01T01:58:48.841Z,29.40
2023-02-01T02:01:15.627Z,35.80
2023-02-01T02:03:45.314Z,36.40
2023-02-01T02:06:21.436Z,58.50
2023-02-01T02:08:47.926Z,53.20
2023-02-01T02:11:16.662Z,55.30
2023-02-01T02:13:45.151Z,72.70
2023-02-01T02:16:26.453Z,81.90
2023-02-01T02:19:12.399Z,63.40
2023-02-01T02:21:53.815Z,63.40
2023-02-01T02:24:55.940Z,58.20
2023-02-01T02:27:24.739Z,45.50
2023-02-01T02:30:08.201Z,48.20
2023-02-01T02:32:52.740Z,46.70
2023-02-01T02:35:26.956Z,36.30
2023-02-01T02:37:55.141Z,37.50
2023-02-01T02:40:25.455Z,30.70
2023-02-01T02:43:30.559Z,33.10
2023-02-01T02:46:37.874Z,32.10
2023-02-01T02:49:15.930Z,35.20
2023-02-01T02:52:38.875Z,21.70
2023-02-01T02:55:06.231Z,27.50
2023-02-01T02:57:59.371Z,30.40
2023-02-01T03:00:50.314Z,37.60
2023-02-01T03:03:36.584Z,25.60
2023-02-01T03:06:03.429Z,23.70
2023-02-01T03:08:31.382Z,25.70
2023-02-01T03:11:04.769Z,22.20
2023-02-01T03:13:51.701Z,29.50
2023-02-01T03:16:40.401Z,28.30
2023-02-01T03:19:08.912Z,28.70
2023-02-01T03:21:37.341Z,28.30
2023-02-01T03:24:33.384Z,29.50
2023-02-01T03:27:05.795Z,30.50
2023-02-01T03:29:39.111Z,26.60
2023-02-01T03:32:05.843Z,31.90
2023-02-01T03:34:33.923Z,31.40
2023-02-01T03:37:06.526Z,36.00
2023-02-01T03:40:11.936Z,29.80
2023-02-01T03:42:42.170Z,35.70
2023-02-01T03:45:14.507Z,32.70
2023-02-01T03:47:44.209Z,37.90
2023-02-01T03:50:12.929Z,40.50
2023-02-01T03:52:47.684Z,41.40
2023-02-01T03:55:16.885Z,41.50
2023-02-01T03:58:09.262Z,46.10
2023-02-01T04:00:35.906Z,39.70
2023-02-01T04:03:06.737Z,35.60
2023-02-01T04:05:34.140Z,41.10
2023-02-01T04:08:05.421Z,35.50
2023-02-01T04:10:32.142Z,34.70
2023-02-01T04:12:58.904Z,38.30
2023-02-01T04:15:25.875Z,34.20
2023-02-01T04:17:52.949Z,37.90
2023-02-01T04:20:19.701Z,42.60
2023-02-01T04:22:46.352Z,40.30
2023-02-01T04:25:13.075Z,41.80
2023-02-01T04:30:09.995Z,40.50
2023-02-01T04:32:37.579Z,36.20
2023-02-01T04:35:04.812Z,33.30
2023-02-01T04:37:31.996Z,39.80
2023-02-01T04:39:58.839Z,41.50
2023-02-01T04:42:26.773Z,39.90
2023-02-01T04:44:53.623Z,45.20
2023-02-01T04:47:21.820Z,39.50
2023-02-01T04:49:48.461Z,49.90
2023-02-01T04:52:15.129Z,37.00
2023-02-01T04:54:41.768Z,42.30
2023-02-01T04:57:08.386Z,43.90
2023-02-01T04:59:35.535Z,44.20
2023-02-01T05:02:02.113Z,40.90
2023-02-01T05:04:29.961Z,38.20
2023-02-01T05:06:56.767Z,32.20
2023-02-01T05:09:23.393Z,42.00
2023-02-01T05:12:08.937Z,41.40
2023-02-01T05:14:35.886Z,35.80
2023-02-01T05:17:02.818Z,45.10
2023-02-01T05:19:29.443Z,32.30
2023-02-01T05:21:56.167Z,42.70
2023-02-01T05:24:22.767Z,46.50
2023-02-01T05:26:50.115Z,34.30
2023-02-01T05:29:17.243Z,39.70
2023-02-01T05:31:47.649Z,42.60
2023-02-01T05:34:15.080Z,52.10
2023-02-01T05:36:41.704Z,42.50
2023-02-01T05:39:08.711Z,43.10
2023-02-01T05:41:35.403Z,43.10
2023-02-01T05:44:02.987Z,42.30
2023-02-01T05:46:30.041Z,49.80
2023-02-01T08:44:54.372Z,57.30
2023-02-01T08:47:23.869Z,37.80
2023-02-01T08:49:50.823Z,40.90
2023-02-01T08:52:18.150Z,40.70
2023-02-01T08:54:45.006Z,37.20
2023-02-01T08:57:12.485Z,38.30
2023-02-01T08:59:40.048Z,31.00
2023-02-01T09:02:11.368Z,34.90
2023-02-01T09:04:38.262Z,35.40
2023-02-01T09:07:05.579Z,31.80
2023-02-01T09:09:33.810Z,38.60
2023-02-01T09:12:01.485Z,36.00
2023-02-01T09:14:31.607Z,38.50
2023-02-01T09:17:00.006Z,39.10
2023-02-01T09:19:28.807Z,31.90
2023-02-01T09:21:55.919Z,25.10
2023-02-01T09:24:22.884Z,28.80
2023-02-01T09:26:50.052Z,31.50
2023-02-01T09:29:16.917Z,26.70
2023-02-01T09:31:49.704Z,24.60
2023-02-01T09:34:21.052Z,21.20
2023-02-01T09:36:50.427Z,21.00
2023-02-01T09:39:17.466Z,21.70
2023-02-01T09:42:05.889Z,16.10
2023-02-01T09:44:52.744Z,23.00
2023-02-01T09:47:25.009Z,18.20
2023-02-01T09:50:05.372Z,19.30
2023-02-01T09:52:41.222Z,21.70
2023-02-01T09:55:15.936Z,18.50
2023-02-01T09:58:08.653Z,20.50
2023-02-01T10:00:38.111Z,17.70
2023-02-01T10:03:06.377Z,18.90
2023-02-01T10:05:58.417Z,18.70
2023-02-01T10:08:34.282Z,15.10
2023-02-01T10:11:21.893Z,18.00
2023-02-01T10:14:13.830Z,17.90
2023-02-01T10:16:52.992Z,22.20
2023-02-01T10:19:41.875Z,25.40
2023-02-01T10:22:11.087Z,20.80
2023-02-01T10:24:41.100Z,20.30
2023-02-01T10:27:12.028Z,24.50
2023-02-01T10:29:41.733Z,21.40
2023-02-01T10:32:15.129Z,23.70
2023-02-01T10:34:43.739Z,31.70
2023-02-01T10:37:32.561Z,31.30
2023-02-01T10:40:03.399Z,25.40
2023-02-01T10:42:31.981Z,26.60
2023-02-01T10:45:00.477Z,22.50
2023-02-01T10:47:28.147Z,24.80
2023-02-01T10:50:15.984Z,22.10
2023-02-01T10:52:49.606Z,18.50
2023-02-01T10:55:30.611Z,16.70
2023-02-01T10:58:04.056Z,13.90
2023-02-01T11:00:44.630Z,18.90
2023-02-01T11:03:32.658Z,22.60
2023-02-01T11:06:00.513Z,20.60
2023-02-01T11:08:32.639Z,15.70
2023-02-01T11:11:02.750Z,22.70
2023-02-01T11:13:34.156Z,21.90
2023-02-01T11:16:04.541Z,17.80
2023-02-01T11:18:35.407Z,20.30
2023-02-01T11:21:02.497Z,16.70
2023-02-01T11:23:31.616Z,18.90
2023-02-01T11:26:00.278Z,22.40
2023-02-01T11:28:32.638Z,26.60
2023-02-01T11:31:05.839Z,25.60
2023-02-01T11:33:37.281Z,21.00
2023-02-01T11:36:09.838Z,23.20
2023-02-01T11:38:37.931Z,25.30
2023-02-01T11:41:27.187Z,23.00
2023-02-01T11:43:56.772Z,21.80
2023-02-01T11:46:30.281Z,14.70
2023-02-01T11:48:57.759Z,21.80
2023-02-01T11:51:51.063Z,15.30
2023-02-01T11:54:41.387Z,17.80
2023-02-01T11:57:15.474Z,19.70
2023-02-01T12:00:03.811Z,22.50
2023-02-01T12:02:58.298Z,22.40
2023-02-01T12:05:47.937Z,25.70
2023-02-01T12:08:46.118Z,27.70
2023-02-01T12:11:43.755Z,22.20
2023-02-01T12:14:20.768Z,23.70
2023-02-01T12:17:04.787Z,15.00
2023-02-01T12:20:09.718Z,26.50
2023-02-01T12:22:52.044Z,24.90
2023-02-01T12:25:42.737Z,26.40
2023-02-01T12:28:37.313Z,25.80
2023-02-01T12:31:13.699Z,26.70
2023-02-01T12:34:01.953Z,27.20
2023-02-01T12:37:08.574Z,28.50
2023-02-01T12:39:48.071Z,21.90
2023-02-01T12:42:36.881Z,19.00
2023-02-01T12:45:16.363Z,29.00
2023-02-01T12:47:58.548Z,21.60
2023-02-01T12:50:30.091Z,23.70
2023-02-01T12:53:07.420Z,20.30
2023-02-01T12:55:39.457Z,26.50
2023-02-01T12:58:22.207Z,31.90
2023-02-01T13:01:09.385Z,23.90
2023-02-01T13:03:50.855Z,27.80
2023-02-01T13:07:01.230Z,21.60
2023-02-01T13:09:34.946Z,29.30
2023-02-01T13:12:32.315Z,20.10
2023-02-01T13:15:11.950Z,23.90
2023-02-01T13:17:40.670Z,21.20
2023-02-01T13:20:28.773Z,24.50
2023-02-01T13:23:25.520Z,30.70
2023-02-01T13:25:54.227Z,18.00
2023-02-01T13:28:30.458Z,28.90
2023-02-01T13:31:20.083Z,25.90
2023-02-01T13:34:29.539Z,20.10
2023-02-01T13:37:13.181Z,21.60
2023-02-01T13:39:58.534Z,25.40
2023-02-01T13:43:14.910Z,25.10
2023-02-01T17:43:49.079Z,58.30
2023-02-01T17:59:19.364Z,50.40
2023-02-01T18:19:58.071Z,37.80
2023-02-01T18:22:25.127Z,38.70
2023-02-01T18:24:52.145Z,39.70
2023-02-01T18:27:19.236Z,44.00
2023-02-01T18:29:48.013Z,50.70
2023-02-01T18:32:14.846Z,40.40
2023-02-01T18:34:42.019Z,43.90
2023-02-01T18:37:09.557Z,45.10
2023-02-01T18:39:40.132Z,43.60
2023-02-01T18:42:10.038Z,38.90
2023-02-01T18:44:37.035Z,51.10
2023-02-01T18:47:04.418Z,37.50
2023-02-01T18:49:32.101Z,32.50
2023-02-01T18:51:59.713Z,43.60
2023-02-01T18:54:27.885Z,35.90
2023-02-01T18:56:55.598Z,37.40
2023-02-01T18:59:22.491Z,40.40
2023-02-01T19:01:49.329Z,32.70
2023-02-01T19:04:26.118Z,35.80
2023-02-01T19:06:54.101Z,38.70
2023-02-01T19:09:22.806Z,34.20
2023-02-01T19:11:49.651Z,39.70
2023-02-01T19:14:16.302Z,34.90
2023-02-01T19:16:43.725Z,43.10
2023-02-01T19:19:10.648Z,36.90
2023-02-01T19:21:37.607Z,31.90
2023-02-01T19:24:05.003Z,37.60
2023-02-01T19:26:32.144Z,37.60
2023-02-01T19:28:59.362Z,35.40
2023-02-01T19:31:26.380Z,37.70
2023-02-01T19:33:54.008Z,32.40
2023-02-01T19:36:20.683Z,38.50
2023-02-01T19:38:47.545Z,40.70
2023-02-01T19:41:14.200Z,34.10
2023-02-01T19:43:40.860Z,35.90
2023-02-01T19:46:07.808Z,33.10
2023-02-01T19:48:35.943Z,35.80
2023-02-01T19:51:04.068Z,35.80
2023-02-01T19:53:30.752Z,37.70
2023-02-01T19:56:01.347Z,33.80
2023-02-01T19:58:29.249Z,31.40
2023-02-01T20:00:57.474Z,34.10
2023-02-01T20:03:24.748Z,30.60
2023-02-01T20:05:52.434Z,31.40
2023-02-01T20:08:19.365Z,29.80
2023-02-01T20:10:46.198Z,34.80
2023-02-01T20:13:13.653Z,29.50
2023-02-01T20:15:43.179Z,30.70
2023-02-01T20:18:10.407Z,31.80
2023-02-01T20:20:37.371Z,28.30
2023-02-01T20:23:05.994Z,28.60
2023-02-01T20:25:36.058Z,31.70
2023-02-01T20:28:03.277Z,36.10
2023-02-01T20:30:31.708Z,34.60
2023-02-01T20:32:58.595Z,33.00
2023-02-01T20:35:25.814Z,29.70
2023-02-01T20:37:53.549Z,31.90
2023-02-01T20:40:20.385Z,30.10
2023-02-01T20:42:47.283Z,27.30
2023-02-01T20:45:14.331Z,28.60
2023-02-01T20:47:41.700Z,26.90
2023-02-01T20:50:09.351Z,29.90
2023-02-01T20:52:35.869Z,33.00
2023-02-01T20:55:02.838Z,29.70
2023-02-01T20:57:29.893Z,27.90
2023-02-01T20:59:58.715Z,37.00
2023-02-01T21:02:26.021Z,26.10
2023-02-01T21:04:53.082Z,26.30
2023-02-01T21:07:20.068Z,29.90
2023-02-01T21:09:46.790Z,24.40
2023-02-01T21:12:13.607Z,31.00
2023-02-01T21:14:40.823Z,31.70
2023-02-01T21:17:07.550Z,29.90
2023-02-01T21:19:42.683Z,31.30
2023-02-01T21:22:13.275Z,26.90
2023-02-01T21:27:24.060Z,27.90
2023-02-01T21:29:50.917Z,25.50
2023-02-01T21:32:17.741Z,32.10
2023-02-01T21:34:44.277Z,29.00
2023-02-01T21:37:11.642Z,24.30
2023-02-01T21:39:38.381Z,27.10
2023-02-01T21:42:14.120Z,27.00
2023-02-01T21:44:41.070Z,30.80
2023-02-01T21:47:09.211Z,26.80
2023-02-01T21:49:36.406Z,26.80
2023-02-01T21:52:04.235Z,27.60
2023-02-01T21:54:31.005Z,25.60
2023-02-01T21:56:57.640Z,27.20
2023-02-01T21:59:24.300Z,29.20
2023-02-01T22:01:50.897Z,26.20
2023-02-01T22:04:17.618Z,27.40
2023-02-01T22:06:47.884Z,26.50
2023-02-01T22:09:19.955Z,26.60
2023-02-01T22:11:46.866Z,27.90
2023-02-01T22:14:15.677Z,23.10
2023-02-01T22:16:42.460Z,27.20
2023-02-01T22:19:09.798Z,30.40
2023-02-01T22:21:38.281Z,29.60
2023-02-01T22:24:06.122Z,30.90
2023-02-01T22:26:33.101Z,27.00
2023-02-01T22:28:59.686Z,28.10
2023-02-01T22:31:26.337Z,32.30
2023-02-01T22:33:53.193Z,27.70
2023-02-01T22:36:19.820Z,22.30
2023-02-01T22:38:47.788Z,26.30
2023-02-01T22:41:14.435Z,22.60
2023-02-01T22:43:41.171Z,32.00
2023-02-01T22:46:14.192Z,24.90
2023-02-01T22:48:41.769Z,26.10
2023-02-01T22:51:21.957Z,27.10
2023-02-01T22:53:56.192Z,20.10
2023-02-01T22:56:27.481Z,27.40
2023-02-01T22:58:55.747Z,25.40
2023-02-01T23:01:22.530Z,26.70
2023-02-01T23:03:49.870Z,21.50
2023-02-01T23:06:18.009Z,27.50
2023-02-01T23:08:45.404Z,29.50
2023-02-01T23:11:12.140Z,26.20
2023-02-01T23:13:39.493Z,22.50
2023-02-01T23:16:07.970Z,22.60
2023-02-01T23:18:35.026Z,26.00
2023-02-01T23:21:03.583Z,21.80
2023-02-01T23:23:30.106Z,27.10
2023-02-01T23:25:58.098Z,22.60
2023-02-01T23:28:26.427Z,25.70
2023-02-01T23:30:53.177Z,21.40
2023-02-01T23:33:26.418Z,24.80
2023-02-01T23:35:57.971Z,25.70
2023-02-01T23:38:26.760Z,26.00
2023-02-01T23:40:58.218Z,25.00
2023-02-01T23:43:43.737Z,24.40
2023-02-01T23:46:10.667Z,21.50
2023-02-01T23:48:37.753Z,18.40
2023-02-01T23:51:04.936Z,22.90
2023-02-01T23:53:32.908Z,23.40
2023-02-01T23:56:00.472Z,23.20
2023-02-01T23:58:27.139Z,26.00
